Time;durP1;ratioP1;P1;durP2;ratioP2;P2;SDS_P1;SDS_P2;PMS_P1;PMS_P2;Temp;Humidity;BMP_temperature;BMP_pressure;BME280_temperature;BME280_humidity;BME280_pressure;Samples;Min_cycle;Max_cycle;Signal;HPM_P1;HPM_P2
2022/12/21 00:01:39;;;;;;;30.60;20.70;;;;;;;1.32;59.99;100861.94;5031692;28;20083;-78
2022/12/21 00:04:05;;;;;;;36.03;23.77;;;;;;;1.22;59.89;100851.22;5031380;28;20026;-78
2022/12/21 00:06:33;;;;;;;36.43;23.77;;;;;;;0.89;60.10;100795.00;5031592;28;20091;-78
2022/12/21 00:09:00;;;;;;;35.93;24.60;;;;;;;0.63;60.10;100756.56;5030251;28;20080;-78
2022/12/21 00:11:28;;;;;;;37.27;24.47;;;;;;;0.90;59.62;100812.25;5031392;28;20057;-78
2022/12/21 00:13:56;;;;;;;40.93;27.17;;;;;;;0.71;59.89;100762.19;5032904;28;20033;-78
2022/12/21 00:16:24;;;;;;;36.63;24.53;;;;;;;1.24;60.28;100845.00;5033533;28;20087;-78
2022/12/21 00:18:50;;;;;;;41.77;25.50;;;;;;;0.94;60.05;100815.53;5035164;28;20025;-78
2022/12/21 00:21:18;;;;;;;36.83;24.47;;;;;;;1.16;60.33;100857.63;5034723;28;20132;-78
2022/12/21 00:23:46;;;;;;;35.57;23.23;;;;;;;0.54;60.18;100757.94;5034802;28;20029;-78
2022/12/21 00:26:14;;;;;;;31.90;22.27;;;;;;;0.71;60.04;100771.75;5034745;28;20021;-78
2022/12/21 00:28:40;;;;;;;33.10;22.37;;;;;;;0.88;59.96;100795.06;5032405;28;20033;-78
2022/12/21 00:31:15;;;;;;;41.53;22.90;;;;;;;0.91;60.00;100808.75;5031526;28;20033;-78
2022/12/21 00:33:42;;;;;;;38.77;23.47;;;;;;;0.63;60.24;100760.00;5031634;28;20120;-78
2022/12/21 00:36:10;;;;;;;40.07;22.83;;;;;;;0.97;59.69;100809.31;5033517;28;20029;-78
2022/12/21 00:38:36;;;;;;;27.83;18.93;;;;;;;0.72;59.86;100796.81;5035263;28;20060;-78
2022/12/21 00:41:04;;;;;;;23.70;18.37;;;;;;;0.77;59.88;100779.22;5033806;28;20033;-78
2022/12/21 00:43:35;;;;;;;25.37;18.10;;;;;;;1.12;59.57;100845.72;5035433;28;20104;-78
2022/12/21 00:46:01;;;;;;;27.67;19.07;;;;;;;0.74;59.79;100781.97;5035075;28;20060;-78
2022/12/21 00:48:28;;;;;;;27.27;19.83;;;;;;;0.98;59.63;100813.59;5034881;28;20483;-78
2022/12/21 00:50:53;;;;;;;28.77;19.80;;;;;;;0.84;59.96;100772.78;5034809;28;20033;-78
2022/12/21 00:53:19;;;;;;;29.87;20.13;;;;;;;0.81;59.78;100780.75;5034925;28;20513;-78
2022/12/21 00:55:58;;;;;;;29.07;20.57;;;;;;;1.13;59.62;100825.72;5034995;28;20037;-78
2022/12/21 00:58:25;;;;;;;26.80;19.00;;;;;;;1.12;59.73;100824.06;5034855;28;20052;-78
2022/12/21 01:00:53;;;;;;;33.00;20.40;;;;;;;1.09;59.67;100811.22;5033605;28;20025;-78
2022/12/21 01:03:20;;;;;;;27.30;20.03;;;;;;;0.50;59.71;100725.25;5033920;28;20034;-78
2022/12/21 01:05:50;;;;;;;28.47;20.07;;;;;;;1.04;59.91;100813.25;5036377;28;20036;-78
2022/12/21 01:08:17;;;;;;;28.47;19.10;;;;;;;0.78;59.95;100786.94;5034512;28;20060;-78
2022/12/21 01:10:43;;;;;;;26.90;19.23;;;;;;;-0.60;60.09;100613.53;5036222;28;20096;-78
2022/12/21 01:13:09;;;;;;;30.50;20.47;;;;;;;0.95;60.10;100807.63;5036370;28;20076;-78
2022/12/21 01:15:39;;;;;;;31.67;20.10;;;;;;;0.99;59.79;100800.50;5035225;28;20029;-78
2022/12/21 01:18:05;;;;;;;30.70;20.27;;;;;;;0.95;60.04;100781.66;5034729;28;20037;-78
2022/12/21 01:20:30;;;;;;;28.73;19.83;;;;;;;0.55;59.68;100712.81;5034745;28;20117;-78
2022/12/21 01:22:55;;;;;;;27.37;19.80;;;;;;;0.60;60.06;100722.97;5034251;28;20104;-78
2022/12/21 01:25:21;;;;;;;32.73;21.97;;;;;;;0.81;59.89;100750.38;5034471;28;20509;-78
2022/12/21 01:27:46;;;;;;;27.37;19.53;;;;;;;0.91;59.72;100784.50;5034137;28;20553;-78
2022/12/21 01:30:12;;;;;;;32.23;21.10;;;;;;;0.82;59.61;100753.81;5032891;28;20022;-78
2022/12/21 01:32:37;;;;;;;33.00;19.17;;;;;;;0.98;59.91;100766.78;5033137;28;20553;-78
2022/12/21 01:35:03;;;;;;;26.37;19.93;;;;;;;0.41;60.12;100701.53;5034519;28;20059;-78
2022/12/21 01:37:29;;;;;;;25.80;18.27;;;;;;;0.91;59.59;100748.94;5033943;28;20037;-78
2022/12/21 01:39:55;;;;;;;23.30;17.50;;;;;;;0.18;59.44;100638.72;5032765;28;20483;-78
2022/12/21 01:42:20;;;;;;;24.27;17.03;;;;;;;0.24;59.71;100671.28;5033838;28;20026;-79
2022/12/21 01:45:06;;;;;;;22.93;15.77;;;;;;;0.85;59.66;100758.84;5032605;28;20095;-79
2022/12/21 01:47:50;;;;;;;19.57;14.63;;;;;;;0.41;59.56;100704.97;5033411;28;20498;-78
2022/12/21 01:50:34;;;;;;;20.90;15.33;;;;;;;0.76;59.27;100757.59;5035081;28;20029;-78
2022/12/21 01:53:06;;;;;;;22.27;15.03;;;;;;;0.44;59.80;100706.56;5034768;28;20033;-78
2022/12/21 01:55:33;;;;;;;21.92;16.50;;;;;;;0.80;59.57;100753.06;5033807;28;20052;-78
2022/12/21 01:58:00;;;;;;;26.80;17.37;;;;;;;0.35;59.67;100697.50;5035159;28;20030;-78
2022/12/21 02:00:26;;;;;;;22.43;15.87;;;;;;;0.45;59.60;100716.88;5034616;28;20025;-78
2022/12/21 02:02:57;;;;;;;25.13;17.13;;;;;;;0.32;59.84;100711.50;5033317;28;20044;-78
2022/12/21 02:05:28;;;;;;;18.67;12.10;;;;;;;0.56;59.76;100734.44;5033731;28;20029;-78
2022/12/21 02:07:58;;;;;;;19.08;15.38;;;;;;;0.14;59.78;100685.72;5033735;28;20080;-78
2022/12/21 02:10:23;;;;;;;26.07;15.73;;;;;;;0.05;59.76;100649.84;5033962;28;20025;-78
2022/12/21 02:12:54;;;;;;;23.70;16.37;;;;;;;0.28;59.46;100662.41;5033403;28;20129;-78
2022/12/21 02:15:28;;;;;;;22.63;15.68;;;;;;;0.56;59.74;100730.09;5032546;28;20079;-78
2022/12/21 02:18:10;;;;;;;22.73;15.17;;;;;;;0.31;59.61;100672.63;5033664;28;20033;-78
2022/12/21 02:20:48;;;;;;;21.80;15.35;;;;;;;0.52;59.52;100723.41;5034359;28;20105;-78
2022/12/21 02:23:48;;;;;;;23.47;15.03;;;;;;;0.52;59.67;100719.97;5034621;28;20034;-78
2022/12/21 02:26:35;;;;;;;25.10;15.27;;;;;;;0.51;59.93;100726.91;5032876;28;20033;-78
2022/12/21 02:29:41;;;;;;;25.40;15.30;;;;;;;0.47;59.63;100719.38;5034311;28;20025;-78
2022/12/21 02:32:19;;;;;;;18.80;13.83;;;;;;;0.46;59.58;100723.72;4992751;28;20153;-78
2022/12/21 02:34:50;;;;;;;20.13;14.50;;;;;;;0.40;59.93;100715.44;4992093;28;20030;-77
2022/12/21 02:37:19;;;;;;;22.23;14.98;;;;;;;0.38;59.69;100722.47;5024548;28;20048;-78
2022/12/21 02:40:03;;;;;;;24.87;15.80;;;;;;;0.39;60.05;100718.97;5033207;28;20025;-78
2022/12/21 02:45:48;;;;;;;19.92;14.48;;;;;;;0.39;59.74;100706.81;5033392;28;20039;-78
2022/12/21 02:48:43;;;;;;;24.30;14.23;;;;;;;0.42;59.82;100701.44;5031780;28;20040;-78
2022/12/21 02:51:16;;;;;;;20.60;14.53;;;;;;;0.14;59.66;100677.91;5032570;28;20417;-78
2022/12/21 02:53:43;;;;;;;19.63;13.83;;;;;;;-0.26;59.65;100590.97;5031497;28;20029;-78
2022/12/21 02:56:19;;;;;;;19.03;14.53;;;;;;;0.52;59.69;100702.59;5032758;28;20021;-79
2022/12/21 02:58:45;;;;;;;21.77;14.80;;;;;;;0.33;59.38;100691.56;5031777;28;20033;-78
2022/12/21 03:01:42;;;;;;;19.40;13.33;;;;;;;0.53;59.56;100698.25;5032450;28;20031;-78
2022/12/21 03:04:38;;;;;;;20.97;15.67;;;;;;;0.37;59.78;100708.66;5032567;28;20038;-78
2022/12/21 03:07:07;;;;;;;21.67;14.37;;;;;;;0.34;60.09;100708.00;5031628;28;20025;-78
2022/12/21 03:09:50;;;;;;;23.77;15.20;;;;;;;0.37;60.01;100706.06;5032867;28;20108;-78
2022/12/21 03:12:18;;;;;;;25.77;15.63;;;;;;;0.39;59.95;100712.00;5032666;28;20041;-78
2022/12/21 03:14:53;;;;;;;22.37;15.27;;;;;;;0.39;60.00;100722.41;5031502;28;20411;-78
2022/12/21 03:17:26;;;;;;;24.73;16.27;;;;;;;0.41;59.99;100704.97;5031576;28;20025;-78
2022/12/21 03:19:58;;;;;;;27.00;17.03;;;;;;;-0.13;59.73;100626.56;5032349;28;20037;-78
2022/12/21 03:22:35;;;;;;;28.70;17.43;;;;;;;0.42;59.60;100685.84;5032175;28;20068;-78
2022/12/21 03:25:19;;;;;;;29.57;19.40;;;;;;;0.54;59.55;100699.91;5032009;28;20056;-78
2022/12/21 03:27:48;;;;;;;29.30;19.40;;;;;;;0.31;59.43;100664.84;5030818;28;20102;-77
2022/12/21 03:30:18;;;;;;;36.23;20.90;;;;;;;0.44;59.56;100693.56;5032388;28;20033;-78
2022/12/21 03:32:50;;;;;;;35.00;20.90;;;;;;;-0.27;59.58;100568.53;5032296;28;20029;-78
2022/12/21 03:35:35;;;;;;;34.38;21.58;;;;;;;0.49;59.38;100697.59;5032171;28;20032;-78
2022/12/21 03:38:04;;;;;;;31.40;19.90;;;;;;;0.07;59.57;100651.44;5031965;28;20091;-79
2022/12/21 03:40:34;;;;;;;31.00;19.63;;;;;;;0.46;59.30;100694.31;5030686;28;20034;-79
2022/12/21 03:43:05;;;;;;;33.23;21.53;;;;;;;0.39;59.68;100699.00;5030590;28;20570;-78
2022/12/21 03:45:39;;;;;;;35.92;22.90;;;;;;;0.42;59.63;100688.47;5030682;28;20075;-78
2022/12/21 03:48:15;;;;;;;33.80;20.63;;;;;;;0.48;59.23;100700.25;5031802;28;20486;-78
2022/12/21 03:50:45;;;;;;;31.80;21.40;;;;;;;-0.09;59.57;100602.09;5032166;28;20514;-78
2022/12/21 03:53:32;;;;;;;32.60;21.90;;;;;;;0.51;59.70;100695.72;5032803;28;20010;-78
2022/12/21 03:56:03;;;;;;;37.37;21.87;;;;;;;0.06;59.33;100616.03;5031362;28;20076;-78
2022/12/21 03:58:29;;;;;;;38.50;23.13;;;;;;;0.36;59.39;100669.78;5032447;28;20049;-78
2022/12/21 04:01:35;;;;;;;35.83;22.80;;;;;;;0.24;59.17;100637.53;5032436;28;20076;-78
2022/12/21 04:04:36;;;;;;;30.97;20.27;;;;;;;0.49;59.42;100692.38;5031798;28;20099;-78
2022/12/21 04:07:04;;;;;;;35.70;21.80;;;;;;;0.30;59.27;100648.41;5031566;28;20165;-78
2022/12/21 04:09:30;;;;;;;27.30;19.90;;;;;;;0.50;59.29;100682.81;5030004;28;20057;-78
2022/12/21 04:14:40;;;;;;;28.97;19.00;;;;;;;0.37;59.52;100690.47;5031512;28;20453;-78
2022/12/21 04:17:05;;;;;;;33.33;21.90;;;;;;;0.22;59.58;100668.78;5031389;28;20034;-78
2022/12/21 04:28:07;;;;;;;29.90;20.40;;;;;;;0.11;59.44;100639.13;5032272;28;20100;-78
2022/12/21 04:30:28;;;;;;;44.33;24.27;;;;;;;-0.57;59.71;100555.47;5032000;28;20114;-78
2022/12/21 04:32:54;;;;;;;41.80;25.23;;;;;;;-0.89;59.65;100526.06;5031695;28;20017;-78
2022/12/21 04:35:19;;;;;;;58.00;35.50;;;;;;;-0.40;59.77;100578.75;5031150;28;20053;-78
2022/12/21 04:37:45;;;;;;;85.50;48.37;;;;;;;0.21;59.70;100669.72;5031133;28;20048;-78
2022/12/21 04:40:10;;;;;;;51.30;34.57;;;;;;;0.02;59.43;100650.03;5031274;28;20087;-78
2022/12/21 04:42:38;;;;;;;47.20;30.27;;;;;;;0.15;59.39;100675.25;5031173;28;20026;-78
2022/12/21 04:45:04;;;;;;;35.50;24.97;;;;;;;-0.21;59.60;100626.13;5037602;28;20029;-77
2022/12/21 04:47:29;;;;;;;38.50;28.27;;;;;;;-0.16;59.19;100644.06;5038676;28;20025;-77
2022/12/21 04:49:55;;;;;;;33.93;25.13;;;;;;;-0.40;59.65;100602.09;5038380;28;20037;-77
2022/12/21 04:52:20;;;;;;;35.87;25.20;;;;;;;-0.38;59.78;100603.69;5033934;28;20021;-78
2022/12/21 04:54:46;;;;;;;36.67;24.87;;;;;;;-0.30;59.79;100620.59;5034496;28;20025;-78
2022/12/21 04:57:11;;;;;;;34.53;23.27;;;;;;;-0.22;59.85;100631.41;5035012;28;20059;-78
2022/12/21 04:59:37;;;;;;;34.47;24.70;;;;;;;-0.06;59.75;100690.19;5035374;28;20041;-78
2022/12/21 05:02:02;;;;;;;41.67;27.57;;;;;;;-0.94;59.64;100528.88;5035423;28;20029;-78
2022/12/21 05:04:28;;;;;;;44.80;28.43;;;;;;;-1.01;59.55;100511.97;5035635;28;20025;-78
2022/12/21 05:06:54;;;;;;;54.73;37.37;;;;;;;-0.16;59.75;100660.47;5036187;28;20475;-78
2022/12/21 05:09:20;;;;;;;55.67;40.00;;;;;;;-0.27;60.00;100657.59;5037022;28;20025;-78
2022/12/21 05:11:46;;;;;;;49.60;37.10;;;;;;;-0.58;60.11;100597.91;5038388;28;20520;-77
2022/12/21 05:14:11;;;;;;;47.13;29.77;;;;;;;-0.35;60.08;100628.63;5032798;28;20486;-78
2022/12/21 05:16:38;;;;;;;40.73;26.73;;;;;;;-0.89;59.79;100558.00;5030821;28;20021;-78
2022/12/21 05:19:03;;;;;;;41.67;29.10;;;;;;;-0.28;60.10;100634.34;5030973;28;20033;-78
2022/12/21 05:21:29;;;;;;;42.57;25.93;;;;;;;-0.65;59.72;100587.84;5031770;28;20028;-78
2022/12/21 05:23:54;;;;;;;38.00;24.80;;;;;;;-0.78;59.52;100550.50;5033592;28;20478;-78
2022/12/21 05:26:20;;;;;;;42.03;26.80;;;;;;;-0.74;60.08;100587.50;5033376;28;20029;-78
2022/12/21 05:28:46;;;;;;;42.40;29.87;;;;;;;-0.55;59.77;100590.78;5034331;28;20022;-79
2022/12/21 05:31:13;;;;;;;40.43;27.17;;;;;;;-0.39;59.76;100624.53;5034307;28;20481;-78
2022/12/21 05:33:39;;;;;;;43.83;29.80;;;;;;;-0.70;59.81;100582.06;5033275;28;20036;-78
2022/12/21 05:36:07;;;;;;;47.43;31.77;;;;;;;-0.52;59.41;100580.25;5034706;28;20025;-78
2022/12/21 05:38:32;;;;;;;47.00;29.87;;;;;;;-0.33;59.73;100622.44;5033692;28;20040;-78
2022/12/21 05:40:58;;;;;;;47.10;30.90;;;;;;;-0.59;59.36;100584.09;5033602;28;20108;-78
2022/12/21 05:43:23;;;;;;;43.87;32.20;;;;;;;-0.27;59.48;100620.44;5034797;28;20038;-78
2022/12/21 05:45:49;;;;;;;44.97;32.83;;;;;;;-0.51;59.51;100565.53;5034922;28;20060;-78
2022/12/21 05:48:14;;;;;;;51.93;36.40;;;;;;;-0.03;59.44;100640.69;5033547;28;20136;-78
2022/12/21 05:50:40;;;;;;;60.87;38.43;;;;;;;-0.84;59.00;100505.91;5034183;28;20527;-78
2022/12/21 05:53:07;;;;;;;70.67;45.03;;;;;;;-0.87;59.28;100496.53;5033779;28;20028;-78
2022/12/21 05:55:33;;;;;;;78.73;47.17;;;;;;;-0.07;59.26;100640.94;5033648;28;20086;-78
2022/12/21 05:57:58;;;;;;;86.77;51.83;;;;;;;-0.26;59.46;100611.72;5033757;28;20109;-78
2022/12/21 06:00:24;;;;;;;78.53;46.97;;;;;;;-0.02;59.58;100634.59;5033753;28;20025;-78
2022/12/21 06:02:49;;;;;;;76.50;47.23;;;;;;;-0.08;59.66;100618.50;5033657;28;20103;-78
2022/12/21 06:05:15;;;;;;;70.73;44.63;;;;;;;-0.69;59.74;100523.25;5033838;28;20395;-78
2022/12/21 06:07:40;;;;;;;61.93;42.20;;;;;;;-0.35;59.44;100576.75;5033579;28;20037;-78
2022/12/21 06:10:06;;;;;;;62.43;41.00;;;;;;;-0.36;59.53;100583.69;5044093;28;20056;-78
2022/12/21 06:12:33;;;;;;;57.67;38.30;;;;;;;-0.05;59.58;100620.94;5053239;28;20851;-78
2022/12/21 06:15:00;;;;;;;54.13;33.57;;;;;;;0.02;59.67;100619.72;5055957;28;20049;-78
2022/12/21 06:17:29;;;;;;;56.53;36.17;;;;;;;-0.02;59.30;100600.84;5058161;28;20036;-78
2022/12/21 06:19:55;;;;;;;75.03;43.47;;;;;;;-0.20;59.02;100557.72;5070035;28;20447;-78
2022/12/21 06:22:20;;;;;;;68.37;43.90;;;;;;;-0.05;59.33;100574.22;5069554;28;20084;-78
2022/12/21 06:24:45;;;;;;;75.87;46.90;;;;;;;0.06;58.95;100591.81;5056701;28;20032;-77
2022/12/21 06:27:11;;;;;;;68.73;42.73;;;;;;;-0.27;59.16;100548.63;5065497;28;20115;-77
2022/12/21 06:29:36;;;;;;;67.67;40.47;;;;;;;-0.26;58.91;100545.09;5071258;28;20052;-78
2022/12/21 06:32:02;;;;;;;62.33;40.00;;;;;;;-0.36;59.18;100549.97;5052979;28;20029;-79
2022/12/21 06:34:27;;;;;;;66.43;40.50;;;;;;;-0.47;58.94;100541.91;5063776;28;20046;-78
2022/12/21 06:36:53;;;;;;;62.20;39.83;;;;;;;-0.30;59.23;100566.09;5053978;28;20037;-78
2022/12/21 06:39:18;;;;;;;63.90;40.40;;;;;;;-0.68;59.24;100506.78;5055284;28;20029;-78
2022/12/21 06:41:44;;;;;;;59.67;37.77;;;;;;;0.02;59.37;100598.94;5066364;28;20045;-78
2022/12/21 06:44:09;;;;;;;61.63;40.33;;;;;;;-0.06;59.28;100575.97;5062362;28;20037;-78
2022/12/21 06:46:34;;;;;;;60.73;40.73;;;;;;;-0.18;59.08;100535.13;5053198;28;20115;-77
2022/12/21 06:49:00;;;;;;;60.57;40.43;;;;;;;-0.09;58.96;100536.38;5056276;28;20422;-78
2022/12/21 06:51:26;;;;;;;74.93;48.83;;;;;;;-0.26;58.76;100505.34;5055747;28;20032;-78
2022/12/21 06:53:53;;;;;;;75.33;49.20;;;;;;;0.46;58.66;100608.59;5052660;28;20017;-79
2022/12/21 06:56:29;;;;;;;60.07;39.60;;;;;;;0.48;58.56;100599.78;5052816;28;20043;-78
2022/12/21 06:58:55;;;;;;;75.97;53.70;;;;;;;-0.05;58.62;100507.56;5067015;28;20101;-79
2022/12/21 07:01:26;;;;;;;84.63;58.83;;;;;;;0.62;58.46;100598.97;5069870;28;20533;-79
2022/12/21 07:03:52;;;;;;;77.00;53.43;;;;;;;0.66;58.75;100597.88;5069543;28;20063;-79
2022/12/21 07:06:19;;;;;;;76.13;52.90;;;;;;;0.71;58.69;100602.81;5071053;28;20123;-79
2022/12/21 07:08:45;;;;;;;66.40;45.93;;;;;;;0.64;58.97;100578.94;5069982;28;20569;-79
2022/12/21 07:11:13;;;;;;;61.93;41.40;;;;;;;0.22;58.86;100512.13;5052308;28;20119;-79
2022/12/21 07:13:41;;;;;;;52.87;37.03;;;;;;;0.84;58.85;100593.38;5059766;28;20037;-79
2022/12/21 07:16:08;;;;;;;51.50;37.17;;;;;;;0.89;58.94;100601.75;5052986;28;20071;-79
2022/12/21 07:18:34;;;;;;;51.40;37.27;;;;;;;0.76;59.16;100567.84;5053194;28;20021;-79
2022/12/21 07:21:05;;;;;;;60.20;41.13;;;;;;;1.02;58.81;100594.91;5048351;28;20060;-80
2022/12/21 07:23:32;;;;;;;60.97;42.83;;;;;;;0.52;59.11;100504.28;5053119;28;20025;-79
2022/12/21 07:25:57;;;;;;;70.03;46.27;;;;;;;1.05;58.85;100586.06;5054883;28;20037;-79
2022/12/21 07:28:24;;;;;;;68.23;45.77;;;;;;;0.03;59.19;100384.28;5058781;28;20037;-79
2022/12/21 07:30:51;;;;;;;56.07;38.97;;;;;;;1.26;59.15;100585.63;5053553;28;20055;-79
2022/12/21 07:33:18;;;;;;;60.93;41.60;;;;;;;1.15;58.98;100556.81;5044763;28;20025;-78
2022/12/21 07:35:45;;;;;;;50.67;37.23;;;;;;;1.37;59.36;100581.53;5044330;28;20021;-79
2022/12/21 07:38:11;;;;;;;52.10;37.57;;;;;;;0.58;59.04;100452.81;5040246;28;20021;-78
2022/12/21 07:40:37;;;;;;;59.90;40.60;;;;;;;1.46;59.31;100587.00;5054088;28;20039;-79
2022/12/21 07:43:10;;;;;;;65.27;43.13;;;;;;;1.40;59.08;100561.34;5071999;28;20024;-80
2022/12/21 07:45:36;;;;;;;55.50;34.60;;;;;;;1.06;59.38;100513.16;5067215;28;20421;-79
2022/12/21 07:48:02;;;;;;;70.43;45.00;;;;;;;1.38;58.93;100545.00;5035238;28;20075;-79
2022/12/21 07:50:27;;;;;;;76.30;47.30;;;;;;;1.17;59.41;100510.75;5051144;28;20473;-79
2022/12/21 07:52:53;;;;;;;71.90;44.43;;;;;;;1.50;59.44;100557.28;5063542;28;20440;-78
2022/12/21 07:55:18;;;;;;;71.30;44.60;;;;;;;1.03;59.37;100494.31;5051784;28;20108;-79
2022/12/21 07:57:44;;;;;;;69.93;42.63;;;;;;;1.09;59.64;100496.53;5032429;28;20030;-79
2022/12/21 08:00:10;;;;;;;83.20;50.13;;;;;;;1.62;59.74;100560.03;5042286;28;20053;-79
2022/12/21 08:02:35;;;;;;;63.07;38.33;;;;;;;1.16;59.72;100474.44;5046979;28;20025;-76
2022/12/21 08:05:00;;;;;;;71.17;41.23;;;;;;;1.83;59.86;100572.53;5043647;28;20025;-78
2022/12/21 08:07:26;;;;;;;58.27;36.40;;;;;;;1.39;59.80;100481.63;5050747;28;20528;-78
2022/12/21 08:09:51;;;;;;;59.60;36.97;;;;;;;1.26;59.51;100439.94;5043187;28;20114;-79
2022/12/21 08:12:17;;;;;;;57.67;36.63;;;;;;;2.06;59.31;100572.84;5034133;28;20061;-78
2022/12/21 08:14:42;;;;;;;63.50;40.23;;;;;;;1.71;59.37;100508.25;5043769;28;20124;-79
2022/12/21 08:17:08;;;;;;;81.90;47.60;;;;;;;1.92;59.87;100506.84;5041909;28;20497;-79
2022/12/21 08:19:33;;;;;;;88.00;52.30;;;;;;;1.58;59.57;100444.88;5033869;28;20045;-79
2022/12/21 08:21:58;;;;;;;81.00;48.93;;;;;;;2.13;59.57;100516.81;5040331;28;20107;-78
2022/12/21 08:24:24;;;;;;;78.13;48.47;;;;;;;2.41;59.72;100557.56;5046287;28;20024;-78
2022/12/21 08:26:49;;;;;;;74.90;45.53;;;;;;;1.86;59.50;100460.38;5045856;28;20414;-79
2022/12/21 08:29:15;;;;;;;69.77;45.40;;;;;;;2.16;59.95;100509.63;5039562;28;20061;-79
2022/12/21 08:31:40;;;;;;;71.90;46.40;;;;;;;1.86;59.73;100457.78;5031327;28;20018;-79
2022/12/21 08:34:06;;;;;;;65.30;43.13;;;;;;;2.23;59.85;100513.53;5036274;28;20064;-79
2022/12/21 08:36:31;;;;;;;60.43;37.17;;;;;;;1.89;59.72;100434.13;5053937;28;20033;-79
2022/12/21 08:38:57;;;;;;;50.10;33.70;;;;;;;1.94;59.65;100430.41;5050916;28;20029;-79
2022/12/21 08:41:24;;;;;;;48.83;31.37;;;;;;;2.13;59.67;100459.50;5053048;28;20029;-79
2022/12/21 08:43:50;;;;;;;42.83;28.47;;;;;;;2.51;59.41;100509.09;5044965;28;20029;-79
2022/12/21 08:46:15;;;;;;;29.50;22.23;;;;;;;2.49;59.69;100477.91;5047624;28;20040;-79
2022/12/21 08:48:41;;;;;;;24.97;17.53;;;;;;;2.10;59.56;100407.59;5049155;28;20033;-78
2022/12/21 08:51:07;;;;;;;20.07;14.27;;;;;;;2.43;59.48;100452.25;5042169;28;20110;-79
2022/12/21 08:53:33;;;;;;;30.87;20.53;;;;;;;2.92;59.19;100515.88;5042409;28;20023;-77
2022/12/21 08:55:58;;;;;;;28.87;19.43;;;;;;;2.89;59.38;100503.88;5063445;28;20039;-77
2022/12/21 08:58:24;;;;;;;30.13;20.80;;;;;;;2.73;58.94;100466.75;5059402;28;20021;-79
2022/12/21 09:00:54;;;;;;;27.33;19.53;;;;;;;2.79;59.39;100459.34;5055013;28;20094;-79
2022/12/21 09:03:20;;;;;;;31.33;21.37;;;;;;;3.36;59.21;100531.06;5053124;28;20079;-79
2022/12/21 09:05:46;;;;;;;29.63;20.47;;;;;;;3.40;59.07;100520.31;5046332;28;20107;-78
2022/12/21 09:08:12;;;;;;;28.70;19.43;;;;;;;3.43;59.17;100514.03;5054794;28;20115;-78
2022/12/21 09:10:38;;;;;;;29.20;21.23;;;;;;;3.27;59.35;100496.00;5047398;28;20111;-79
2022/12/21 09:13:04;;;;;;;30.20;22.10;;;;;;;2.96;59.17;100446.88;5056478;28;20498;-79
2022/12/21 09:15:29;;;;;;;36.57;26.23;;;;;;;2.84;58.85;100393.81;5058221;28;20429;-79
2022/12/21 09:17:55;;;;;;;34.53;25.10;;;;;;;3.20;58.74;100442.59;5040029;28;20022;-80
2022/12/21 09:20:21;;;;;;;38.43;27.83;;;;;;;3.33;58.76;100445.16;5039895;28;20110;-79
2022/12/21 09:22:46;;;;;;;40.37;27.67;;;;;;;3.16;58.94;100415.03;5063991;28;20551;-79
2022/12/21 09:25:12;;;;;;;34.43;25.17;;;;;;;3.21;58.77;100407.72;5043081;28;20116;-78
2022/12/21 09:27:38;;;;;;;36.13;25.60;;;;;;;3.57;58.79;100468.66;5042828;28;20045;-78
2022/12/21 09:30:03;;;;;;;44.80;29.13;;;;;;;3.44;58.44;100437.38;5054131;28;20029;-80
2022/12/21 09:32:29;;;;;;;38.53;27.77;;;;;;;3.45;58.65;100412.94;5056820;28;20040;-79
2022/12/21 09:34:55;;;;;;;40.77;27.43;;;;;;;3.89;58.54;100471.56;5056723;28;20029;-80
2022/12/21 09:37:20;;;;;;;40.60;29.00;;;;;;;3.15;58.75;100353.34;5056210;28;20551;-80
2022/12/21 09:39:45;;;;;;;33.60;22.13;;;;;;;3.59;58.62;100389.28;5056482;28;20036;-79
2022/12/21 09:42:16;;;;;;;22.43;15.43;;;;;;;4.03;58.27;100446.09;5038304;28;20029;-77
2022/12/21 09:44:48;;;;;;;23.25;16.35;;;;;;;4.12;57.92;100444.56;5063388;28;20036;-79
2022/12/21 09:47:21;;;;;;;25.60;19.23;;;;;;;3.92;58.08;100387.75;5036607;28;20021;-78
2022/12/21 09:49:49;;;;;;;30.13;20.27;;;;;;;4.24;57.66;100420.13;5055281;28;20519;-79
2022/12/21 09:52:21;;;;;;;33.33;23.77;;;;;;;4.13;57.72;100409.66;5044930;28;20500;-79
2022/12/21 09:54:54;;;;;;;34.20;23.77;;;;;;;4.03;57.77;100379.94;5051623;28;20049;-79
2022/12/21 09:57:20;;;;;;;38.07;24.67;;;;;;;4.08;57.27;100364.72;5046826;28;20431;-78
2022/12/21 09:59:45;;;;;;;33.77;22.50;;;;;;;3.82;57.63;100304.00;5058447;28;20064;-78
2022/12/21 10:02:29;;;;;;;35.93;25.70;;;;;;;4.55;57.71;100402.13;5051813;28;20540;-79
2022/12/21 10:05:29;;;;;;;32.47;24.17;;;;;;;4.47;57.36;100385.25;5051794;28;20057;-78
2022/12/21 10:08:33;;;;;;;35.23;24.97;;;;;;;4.52;57.81;100378.81;5052175;28;20471;-79
2022/12/21 10:11:01;;;;;;;31.27;24.00;;;;;;;4.71;57.88;100392.13;5053547;28;20421;-78
2022/12/21 10:14:01;;;;;;;42.33;28.43;;;;;;;4.75;58.08;100393.56;5053540;28;20029;-78
2022/12/21 10:16:52;;;;;;;36.43;28.33;;;;;;;4.75;58.38;100377.84;5054551;28;20036;-78
2022/12/21 10:19:24;;;;;;;36.27;23.57;;;;;;;4.90;58.28;100386.28;5039386;28;20028;-78
2022/12/21 10:21:55;;;;;;;37.15;27.42;;;;;;;5.04;58.11;100381.63;5050444;28;20077;-78
2022/12/21 10:24:52;;;;;;;40.30;26.98;;;;;;;4.94;58.19;100341.44;5052106;28;20055;-79
2022/12/21 10:27:27;;;;;;;23.70;17.87;;;;;;;5.18;57.93;100362.19;5051867;28;20068;-78
2022/12/21 10:29:56;;;;;;;27.40;18.97;;;;;;;5.26;57.68;100358.97;5052427;28;20025;-78
2022/12/21 10:32:24;;;;;;;14.63;9.63;;;;;;;5.43;57.17;100371.53;5039862;28;20030;-79
2022/12/21 10:34:54;;;;;;;19.33;11.30;;;;;;;5.16;57.26;100321.38;5054714;28;20033;-79
2022/12/21 10:37:21;;;;;;;13.50;9.90;;;;;;;5.54;57.06;100370.66;5051662;28;20025;-80
2022/12/21 10:39:56;;;;;;;13.53;10.07;;;;;;;5.04;57.36;100290.00;5056547;28;20032;-79
2022/12/21 10:42:34;;;;;;;17.57;10.30;;;;;;;5.20;57.33;100301.84;5052419;28;20082;-79
2022/12/21 10:45:00;;;;;;;10.60;7.43;;;;;;;5.48;56.82;100343.19;5049774;28;20037;-79
2022/12/21 10:47:25;;;;;;;9.13;6.57;;;;;;;5.61;57.29;100370.03;5067449;28;20037;-79
2022/12/21 10:50:04;;;;;;;8.90;6.53;;;;;;;5.66;56.79;100357.38;5072941;28;20141;-80
2022/12/21 10:52:56;;;;;;;8.47;7.00;;;;;;;5.68;56.96;100362.50;5054807;28;20020;-79
2022/12/21 10:55:22;;;;;;;11.03;7.70;;;;;;;5.68;56.64;100352.84;5057400;28;20144;-79
2022/12/21 10:57:52;;;;;;;10.93;7.97;;;;;;;5.66;57.16;100352.16;5042855;28;20103;-79
2022/12/21 11:00:25;;;;;;;10.13;6.90;;;;;;;5.62;57.26;100345.50;5039365;28;20037;-79
2022/12/21 11:02:53;;;;;;;9.23;7.10;;;;;;;5.19;56.95;100281.88;5050960;28;20030;-79
2022/12/21 11:05:33;;;;;;;12.67;7.13;;;;;;;5.57;57.31;100344.22;5048054;28;20038;-79
2022/12/21 11:08:15;;;;;;;9.87;7.17;;;;;;;5.58;57.47;100344.09;5049388;28;20413;-78
2022/12/21 11:10:52;;;;;;;13.55;9.80;;;;;;;4.98;57.12;100237.34;5049162;28;20087;-79
2022/12/21 11:13:19;;;;;;;19.67;14.83;;;;;;;5.17;57.08;100270.69;5052638;28;20025;-78
2022/12/21 11:16:12;;;;;;;17.60;13.00;;;;;;;5.35;57.51;100304.06;5052428;28;20036;-78
2022/12/21 11:18:45;;;;;;;16.00;11.87;;;;;;;5.53;57.15;100322.69;5042406;28;20044;-79
2022/12/21 11:21:32;;;;;;;11.40;8.10;;;;;;;5.54;57.33;100329.59;5042694;28;20036;-79
2022/12/21 11:24:03;;;;;;;9.50;6.20;;;;;;;5.48;57.50;100313.53;5050090;28;20481;-79
2022/12/21 11:26:33;;;;;;;10.25;8.07;;;;;;;5.58;57.43;100317.91;5047448;28;20098;-79
2022/12/21 11:29:01;;;;;;;13.23;6.90;;;;;;;5.61;57.47;100322.03;5059964;28;20044;-79
2022/12/21 11:31:29;;;;;;;11.77;6.27;;;;;;;5.60;57.28;100313.34;5051285;28;20128;-79
2022/12/21 11:33:54;;;;;;;12.53;8.10;;;;;;;5.10;57.36;100223.25;5045688;28;20497;-79
2022/12/21 11:36:20;;;;;;;10.63;7.93;;;;;;;4.80;57.61;100182.13;5051898;28;20092;-78
2022/12/21 11:38:45;;;;;;;12.77;8.87;;;;;;;5.44;57.34;100278.91;5052035;28;20021;-79
2022/12/21 11:41:29;;;;;;;9.07;6.60;;;;;;;5.28;57.17;100245.31;5041402;28;20120;-79
2022/12/21 11:43:55;;;;;;;7.37;5.77;;;;;;;5.49;57.40;100265.44;5031950;28;20040;-79